createdAt,value
2022-11-16T00:01:56.148Z,12.87
2022-11-16T00:04:24.111Z,9.57
2022-11-16T00:06:52.079Z,8.03
2022-11-16T00:09:27.077Z,7.73
2022-11-16T00:11:58.918Z,7.00
2022-11-16T00:14:28.608Z,13.70
2022-11-16T00:16:56.723Z,11.10
2022-11-16T00:19:25.503Z,9.87
2022-11-16T00:21:53.881Z,7.67
2022-11-16T00:24:24.681Z,8.87
2022-11-16T00:26:56.272Z,7.77
2022-11-16T00:29:26.196Z,7.83
2022-11-16T00:31:55.450Z,12.77
2022-11-16T00:34:24.461Z,10.80
2022-11-16T00:36:53.161Z,11.63
2022-11-16T00:39:23.405Z,9.63
2022-11-16T00:41:51.852Z,9.87
2022-11-16T00:44:21.113Z,9.70
2022-11-16T00:46:48.950Z,8.47
2022-11-16T00:49:17.385Z,7.40
2022-11-16T00:51:45.184Z,6.93
2022-11-16T00:54:13.026Z,6.23
2022-11-16T00:56:41.015Z,4.93
2022-11-16T00:59:09.191Z,7.73
2022-11-16T01:01:40.580Z,5.07
2022-11-16T01:04:08.440Z,6.27
2022-11-16T01:06:37.170Z,5.83
2022-11-16T01:09:07.041Z,6.63
2022-11-16T01:11:52.618Z,6.10
2022-11-16T01:14:20.500Z,8.13
2022-11-16T01:16:51.832Z,6.90
2022-11-16T01:19:21.385Z,7.23
2022-11-16T01:21:49.156Z,6.20
2022-11-16T01:24:19.106Z,7.13
2022-11-16T01:26:46.926Z,5.90
2022-11-16T01:29:14.844Z,6.93
2022-11-16T01:31:47.525Z,6.50
2022-11-16T01:34:16.969Z,6.53
2022-11-16T01:36:45.158Z,9.23
2022-11-16T01:39:14.136Z,7.63
2022-11-16T01:41:47.913Z,6.33
2022-11-16T01:44:54.044Z,5.87
2022-11-16T01:47:21.876Z,8.03
2022-11-16T01:49:54.197Z,7.00
2022-11-16T01:52:31.219Z,6.47
2022-11-16T01:54:59.779Z,6.07
2022-11-16T01:57:34.954Z,7.40
2022-11-16T02:00:11.998Z,5.53
2022-11-16T02:02:48.610Z,5.00
2022-11-16T02:05:46.876Z,6.47
2022-11-16T02:08:45.055Z,7.73
2022-11-16T02:11:39.152Z,6.03
2022-11-16T02:14:21.317Z,7.17
2022-11-16T02:16:59.590Z,6.27
2022-11-16T02:20:00.250Z,9.63
2022-11-16T02:22:42.922Z,6.83
2022-11-16T02:25:22.128Z,6.53
2022-11-16T02:28:09.780Z,7.67
2022-11-16T02:30:43.895Z,5.63
2022-11-16T02:33:14.448Z,7.00
2022-11-16T02:35:47.821Z,7.60
2022-11-16T02:38:20.437Z,5.67
2022-11-16T02:40:54.782Z,5.00
2022-11-16T02:43:32.585Z,7.93
2022-11-16T02:46:07.923Z,5.83
2022-11-16T02:48:39.000Z,6.83
2022-11-16T02:51:09.044Z,5.17
2022-11-16T02:53:43.112Z,6.73
2022-11-16T02:56:13.959Z,6.47
2022-11-16T02:58:42.397Z,6.10
2022-11-16T03:01:16.812Z,6.07
2022-11-16T03:03:50.345Z,6.37
2022-11-16T03:06:22.076Z,5.03
2022-11-16T03:09:00.752Z,6.67
2022-11-16T03:11:49.804Z,5.37
2022-11-16T03:14:23.677Z,7.07
2022-11-16T03:16:57.206Z,5.20
2022-11-16T03:19:30.636Z,9.57
2022-11-16T03:22:07.475Z,7.60
2022-11-16T03:24:38.709Z,5.63
2022-11-16T03:27:13.694Z,5.13
2022-11-16T03:29:48.114Z,4.83
2022-11-16T03:32:22.923Z,4.83
2022-11-16T03:34:57.691Z,6.50
2022-11-16T03:37:31.124Z,3.97
2022-11-16T03:40:02.944Z,7.87
2022-11-16T03:42:34.188Z,5.43
2022-11-16T03:45:03.546Z,7.17
2022-11-16T03:47:32.919Z,6.00
2022-11-16T03:50:00.840Z,6.53
2022-11-16T03:52:29.449Z,7.63
2022-11-16T03:54:57.283Z,9.33
2022-11-16T04:01:57.243Z,5.33
2022-11-16T04:04:44.871Z,5.77
2022-11-16T04:07:30.337Z,4.97
2022-11-16T04:10:15.670Z,5.70
2022-11-16T04:13:02.498Z,4.27
2022-11-16T04:15:59.242Z,5.23
2022-11-16T04:18:44.693Z,6.17
2022-11-16T04:21:45.159Z,6.10
2022-11-16T04:24:15.974Z,4.57
2022-11-16T04:27:04.318Z,5.60
2022-11-16T04:29:34.730Z,3.67
2022-11-16T04:32:20.417Z,6.20
2022-11-16T04:35:05.867Z,4.93
2022-11-16T04:37:52.640Z,5.03
2022-11-16T04:40:30.055Z,4.40
2022-11-16T04:43:00.649Z,4.83
2022-11-16T04:45:50.860Z,4.20
2022-11-16T04:48:21.321Z,3.97
2022-11-16T04:50:53.127Z,5.20
2022-11-16T04:53:26.928Z,6.40
2022-11-16T04:56:05.867Z,5.20
2022-11-16T04:58:34.753Z,4.87
2022-11-16T05:01:03.499Z,3.93
2022-11-16T05:03:31.838Z,4.17
2022-11-16T05:05:59.728Z,3.30
2022-11-16T05:08:29.200Z,5.13
2022-11-16T05:11:00.396Z,5.97
2022-11-16T05:13:29.110Z,4.17
2022-11-16T05:15:57.099Z,3.97
2022-11-16T05:18:26.034Z,3.93
2022-11-16T05:21:10.591Z,5.30
2022-11-16T05:23:58.449Z,12.90
2022-11-16T05:26:30.621Z,6.43
2022-11-16T05:29:01.440Z,6.33
2022-11-16T05:31:29.411Z,5.20
2022-11-16T05:33:57.709Z,6.20
2022-11-16T05:36:25.872Z,6.63
2022-11-16T05:38:56.442Z,5.57
2022-11-16T05:41:28.924Z,5.93
2022-11-16T05:43:57.795Z,4.10
2022-11-16T05:46:26.152Z,3.63
2022-11-16T05:48:56.788Z,7.33
2022-11-16T05:51:25.784Z,4.73
2022-11-16T05:53:56.729Z,3.70
2022-11-16T05:56:25.641Z,4.33
2022-11-16T05:58:56.220Z,6.47
2022-11-16T06:01:24.527Z,4.40
2022-11-16T06:03:52.941Z,4.57
2022-11-16T06:06:21.278Z,4.63
2022-11-16T06:08:50.875Z,4.00
2022-11-16T06:11:25.688Z,4.37
2022-11-16T06:13:53.659Z,4.40
2022-11-16T06:16:21.497Z,5.10
2022-11-16T06:18:50.007Z,3.17
2022-11-16T06:21:20.153Z,4.93
2022-11-16T06:23:48.603Z,4.47
2022-11-16T06:26:17.386Z,3.30
2022-11-16T06:28:47.452Z,4.10
2022-11-16T06:31:15.560Z,2.70
2022-11-16T06:33:43.622Z,3.77
2022-11-16T06:36:18.183Z,3.07
2022-11-16T06:38:46.373Z,3.77
2022-11-16T06:41:15.046Z,3.47
2022-11-16T06:43:48.399Z,3.53
2022-11-16T06:46:19.286Z,4.93
2022-11-16T06:48:48.941Z,5.23
2022-11-16T06:51:16.815Z,3.60
2022-11-16T06:53:44.728Z,4.53
2022-11-16T06:56:15.979Z,8.00
2022-11-16T06:58:53.295Z,4.03
2022-11-16T07:01:21.867Z,5.43
2022-11-16T07:03:50.960Z,3.47
2022-11-16T07:06:18.813Z,4.57
2022-11-16T07:08:47.343Z,3.00
2022-11-16T07:11:20.162Z,2.50
2022-11-16T07:13:49.949Z,3.47
2022-11-16T07:16:18.389Z,3.40
2022-11-16T07:18:56.366Z,2.60
2022-11-16T07:21:24.853Z,3.23
2022-11-16T07:23:55.175Z,2.30
2022-11-16T07:26:24.299Z,3.83
2022-11-16T07:28:59.202Z,2.90
2022-11-16T07:31:27.799Z,3.77
2022-11-16T07:34:29.802Z,2.77
2022-11-16T07:37:09.998Z,3.67
2022-11-16T07:39:38.400Z,5.30
2022-11-16T07:42:11.752Z,3.70
2022-11-16T07:44:52.376Z,3.63
2022-11-16T07:47:20.256Z,3.43
2022-11-16T07:49:49.016Z,2.70
2022-11-16T07:52:20.251Z,2.60
2022-11-16T07:54:56.166Z,2.37
2022-11-16T07:57:26.620Z,1.97
2022-11-16T07:59:58.037Z,2.40
2022-11-16T08:02:25.946Z,2.10
2022-11-16T08:04:53.808Z,2.20
2022-11-16T08:07:26.361Z,2.13
2022-11-16T08:09:57.294Z,2.47
2022-11-16T08:12:25.475Z,1.40
2022-11-16T08:14:54.190Z,1.33
2022-11-16T08:17:23.626Z,3.13
2022-11-16T08:19:53.337Z,1.87
2022-11-16T08:22:21.466Z,2.37
2022-11-16T08:24:49.436Z,2.13
2022-11-16T08:27:18.480Z,1.30
2022-11-16T08:29:51.401Z,2.23
2022-11-16T08:32:19.295Z,2.17
2022-11-16T08:34:48.444Z,1.47
2022-11-16T08:37:17.332Z,1.70
2022-11-16T08:39:46.511Z,2.43
2022-11-16T08:42:14.738Z,1.33
2022-11-16T08:44:47.231Z,2.50
2022-11-16T08:47:17.127Z,1.23
2022-11-16T08:49:50.993Z,1.30
2022-11-16T08:52:24.254Z,6.10
2022-11-16T08:54:54.296Z,2.00
2022-11-16T08:57:24.591Z,2.57
2022-11-16T08:59:57.854Z,2.17
2022-11-16T09:02:25.918Z,2.60
2022-11-16T09:04:55.357Z,2.43
2022-11-16T09:07:23.295Z,1.67
2022-11-16T09:09:51.292Z,2.10
2022-11-16T09:12:19.890Z,2.87
2022-11-16T09:14:47.850Z,1.17
2022-11-16T09:17:20.313Z,1.90
2022-11-16T09:19:50.916Z,1.10
2022-11-16T09:22:22.445Z,4.97
2022-11-16T09:24:50.334Z,1.73
2022-11-16T09:27:20.269Z,1.27
2022-11-16T09:29:48.099Z,2.97
2022-11-16T09:32:15.855Z,1.77
2022-11-16T09:34:43.674Z,2.80
2022-11-16T09:37:11.520Z,2.37
2022-11-16T09:39:40.645Z,2.00
2022-11-16T09:42:24.112Z,4.00
2022-11-16T09:45:04.695Z,2.33
2022-11-16T09:47:51.132Z,2.20
2022-11-16T09:50:48.088Z,2.03
2022-11-16T09:53:30.070Z,3.63
2022-11-16T09:56:04.075Z,2.77
2022-11-16T09:58:42.086Z,3.33
2022-11-16T10:01:22.097Z,0.93
2022-11-16T10:03:54.920Z,3.17
2022-11-16T10:06:27.147Z,1.40
2022-11-16T10:08:57.579Z,1.77
2022-11-16T10:11:56.643Z,1.67
2022-11-16T10:14:51.083Z,2.13
2022-11-16T10:17:27.498Z,3.73
2022-11-16T10:19:57.716Z,5.37
2022-11-16T10:22:39.253Z,3.27
2022-11-16T10:25:16.219Z,2.17
2022-11-16T10:28:18.673Z,5.60
2022-11-16T10:30:54.077Z,2.83
2022-11-16T10:33:26.300Z,4.80
2022-11-16T10:35:54.271Z,1.60
2022-11-16T10:38:26.006Z,2.17
2022-11-16T10:40:56.788Z,2.63
2022-11-16T10:43:29.724Z,3.17
2022-11-16T10:46:03.960Z,2.53
2022-11-16T10:48:39.547Z,3.33
2022-11-16T10:51:09.606Z,4.50
2022-11-16T10:53:39.232Z,2.40
2022-11-16T10:56:20.738Z,1.67
2022-11-16T10:58:56.561Z,2.37
2022-11-16T11:01:34.017Z,1.63
2022-11-16T11:04:16.772Z,1.07
2022-11-16T11:06:45.364Z,1.57
2022-11-16T11:09:21.500Z,1.63
2022-11-16T11:12:17.227Z,0.97
2022-11-16T11:15:01.223Z,3.73
2022-11-16T11:17:29.831Z,2.80
2022-11-16T11:20:04.153Z,1.50
2022-11-16T11:22:33.112Z,1.40
2022-11-16T11:25:03.235Z,1.27
2022-11-16T11:27:34.928Z,1.67
2022-11-16T11:30:07.582Z,1.70
2022-11-16T11:32:41.444Z,2.97
2022-11-16T11:35:23.976Z,1.97
2022-11-16T11:37:55.470Z,2.40
2022-11-16T11:40:25.722Z,2.53
2022-11-16T11:42:59.051Z,1.40
2022-11-16T11:45:35.424Z,1.53
2022-11-16T11:48:06.414Z,3.73
2022-11-16T11:50:43.488Z,2.47
2022-11-16T11:53:23.322Z,2.73
2022-11-16T11:55:58.690Z,3.27
2022-11-16T11:58:32.807Z,3.20
2022-11-16T12:01:37.647Z,2.77
2022-11-16T12:04:29.407Z,1.40
2022-11-16T12:07:02.660Z,1.53
2022-11-16T12:09:41.221Z,2.00
2022-11-16T12:12:26.862Z,0.80
2022-11-16T12:15:05.188Z,1.83
2022-11-16T12:17:47.321Z,1.80
2022-11-16T12:20:28.163Z,0.77
2022-11-16T12:23:14.620Z,2.13
2022-11-16T12:25:51.296Z,3.03
2022-11-16T12:28:33.069Z,1.70
2022-11-16T12:31:20.887Z,1.97
2022-11-16T12:33:59.410Z,2.17
2022-11-16T12:36:40.495Z,1.40
2022-11-16T12:39:24.738Z,1.23
2022-11-16T12:42:18.058Z,3.55
2022-11-16T12:45:04.995Z,1.40
2022-11-16T12:47:48.987Z,2.08
2022-11-16T12:50:42.611Z,1.98
2022-11-16T12:53:21.595Z,1.23
2022-11-16T12:56:00.276Z,3.93
2022-11-16T12:58:42.778Z,1.03
2022-11-16T13:01:18.464Z,1.25
2022-11-16T13:03:53.649Z,2.03
2022-11-16T13:06:32.008Z,3.70
2022-11-16T13:09:07.892Z,1.25
2022-11-16T13:11:39.206Z,3.15
2022-11-16T13:14:16.671Z,3.80
2022-11-16T13:16:45.558Z,4.55
2022-11-16T13:19:18.066Z,1.40
2022-11-16T13:21:54.936Z,2.40
2022-11-16T13:24:40.585Z,1.48
2022-11-16T13:27:19.463Z,2.42
2022-11-16T13:29:54.151Z,1.13
2022-11-16T13:32:29.426Z,4.38
2022-11-16T13:34:59.346Z,1.98
2022-11-16T13:37:45.860Z,1.77
2022-11-16T13:40:28.427Z,1.38
2022-11-16T13:43:04.561Z,1.42
2022-11-16T13:45:37.105Z,2.97
2022-11-16T13:48:16.015Z,4.22
2022-11-16T13:50:49.913Z,1.98
2022-11-16T13:56:16.019Z,1.20
2022-11-16T13:58:48.184Z,1.10
2022-11-16T14:01:17.281Z,1.50
2022-11-16T14:03:46.353Z,0.90
2022-11-16T14:06:57.286Z,0.40
2022-11-16T14:09:48.858Z,1.03
2022-11-16T14:12:56.196Z,2.30
2022-11-16T14:15:33.891Z,4.45
2022-11-16T14:18:32.924Z,1.93
2022-11-16T14:21:08.190Z,2.03
2022-11-16T14:23:50.370Z,0.80
2022-11-16T14:26:26.396Z,2.70
2022-11-16T14:29:10.301Z,4.97
2022-11-16T14:31:52.204Z,0.73
2022-11-16T14:34:23.483Z,1.98
2022-11-16T14:36:51.877Z,2.00
2022-11-16T14:39:32.796Z,1.77
2022-11-16T14:42:05.411Z,0.90
2022-11-16T14:44:37.890Z,1.90
2022-11-16T14:47:06.823Z,1.73
2022-11-16T14:49:37.167Z,2.20
2022-11-16T14:52:08.359Z,2.13
2022-11-16T14:54:40.084Z,1.63
2022-11-16T14:57:18.676Z,2.70
2022-11-16T14:59:46.518Z,0.70
2022-11-16T15:02:20.348Z,1.83
2022-11-16T15:04:48.965Z,1.23
2022-11-16T15:07:18.420Z,2.53
2022-11-16T15:09:50.063Z,1.17
2022-11-16T15:12:53.012Z,2.25
2022-11-16T15:15:23.905Z,3.03
2022-11-16T15:18:06.994Z,0.95
2022-11-16T15:20:36.754Z,2.60
2022-11-16T15:23:06.066Z,1.83
2022-11-16T15:25:36.928Z,1.10
2022-11-16T15:28:14.622Z,1.20
2022-11-16T15:30:42.991Z,2.37
2022-11-16T15:33:12.835Z,5.43
2022-11-16T15:35:40.740Z,2.33
2022-11-16T15:38:18.995Z,2.70
2022-11-16T15:40:51.427Z,2.50
2022-11-16T15:43:22.524Z,2.30
2022-11-16T15:45:53.504Z,1.70
2022-11-16T15:48:24.443Z,3.20
2022-11-16T15:51:02.973Z,2.37
2022-11-16T15:53:37.789Z,1.33
2022-11-16T15:56:09.544Z,2.70
2022-11-16T15:58:40.209Z,2.80
2022-11-16T16:01:09.416Z,3.17
2022-11-16T16:03:38.312Z,3.63
2022-11-16T16:06:07.902Z,1.27
2022-11-16T16:08:37.449Z,1.47
2022-11-16T16:11:09.711Z,2.47
2022-11-16T16:13:40.675Z,3.63
2022-11-16T16:16:29.102Z,2.00
2022-11-16T16:19:01.575Z,2.20
2022-11-16T16:21:43.044Z,3.03
2022-11-16T16:24:37.656Z,2.40
2022-11-16T16:27:12.784Z,5.30
2022-11-16T16:29:42.054Z,8.27
2022-11-16T16:32:14.887Z,6.53
2022-11-16T16:34:42.746Z,9.03
2022-11-16T16:37:12.954Z,6.17
2022-11-16T16:39:41.999Z,9.73
2022-11-16T16:42:14.284Z,9.10
2022-11-16T16:44:44.953Z,5.97
2022-11-16T16:47:13.461Z,3.17
2022-11-16T16:49:43.732Z,4.37
2022-11-16T16:52:13.062Z,3.87
2022-11-16T16:54:41.381Z,5.80
2022-11-16T16:57:14.149Z,6.73
2022-11-16T16:59:44.999Z,8.63
2022-11-16T17:02:13.809Z,5.63
2022-11-16T17:04:43.927Z,5.00
2022-11-16T17:07:14.969Z,7.43
2022-11-16T17:09:42.855Z,9.30
2022-11-16T17:12:11.707Z,6.83
2022-11-16T17:14:39.473Z,7.17
2022-11-16T17:17:08.827Z,5.73
2022-11-16T17:19:40.344Z,9.20
2022-11-16T17:22:08.394Z,10.40
2022-11-16T17:24:36.651Z,7.33
2022-11-16T17:27:13.877Z,10.87
2022-11-16T17:29:57.983Z,12.20
2022-11-16T17:32:27.365Z,17.50
2022-11-16T17:34:55.195Z,35.07
2022-11-16T17:37:30.147Z,55.10
2022-11-16T17:39:58.120Z,28.67
2022-11-16T17:42:26.019Z,21.60
2022-11-16T17:44:55.157Z,17.80
2022-11-16T17:47:22.977Z,14.03
2022-11-16T17:49:52.146Z,13.23
2022-11-16T17:52:19.947Z,13.80
2022-11-16T17:54:47.716Z,13.87
2022-11-16T17:57:15.494Z,7.87
2022-11-16T17:59:43.271Z,7.43
2022-11-16T18:02:12.092Z,9.63
2022-11-16T18:04:39.907Z,14.87
2022-11-16T18:07:09.094Z,11.53
2022-11-16T18:09:36.920Z,7.63
2022-11-16T18:12:04.927Z,10.23
2022-11-16T18:14:32.696Z,8.97
2022-11-16T18:17:00.515Z,7.53
2022-11-16T18:19:28.459Z,9.83
2022-11-16T18:21:56.229Z,8.73
2022-11-16T18:24:25.352Z,10.60
2022-11-16T18:26:53.668Z,9.43
2022-11-16T18:29:22.214Z,11.13
2022-11-16T18:31:50.205Z,9.27
2022-11-16T18:34:21.058Z,8.97
2022-11-16T18:36:50.766Z,9.13
2022-11-16T18:39:18.908Z,8.17
2022-11-16T18:41:54.499Z,8.97
2022-11-16T18:44:23.384Z,11.33
2022-11-16T18:46:51.201Z,13.00
2022-11-16T18:49:18.981Z,12.83
2022-11-16T18:51:46.760Z,6.50
2022-11-16T18:54:14.507Z,6.87
2022-11-16T18:56:42.291Z,7.37
2022-11-16T18:59:11.461Z,6.90
2022-11-16T19:01:39.298Z,8.77
2022-11-16T19:04:07.515Z,6.30
2022-11-16T19:06:37.918Z,10.67
2022-11-16T19:09:09.483Z,9.93
2022-11-16T19:11:37.425Z,6.10
2022-11-16T19:14:07.380Z,8.63
2022-11-16T19:16:36.937Z,8.03
2022-11-16T19:19:05.570Z,8.50
2022-11-16T19:21:33.350Z,8.73
2022-11-16T19:24:01.179Z,6.20
2022-11-16T19:26:29.130Z,6.30
2022-11-16T19:28:57.003Z,8.43
2022-11-16T19:31:26.267Z,4.73
2022-11-16T19:33:56.736Z,5.03
2022-11-16T19:36:27.916Z,4.20
2022-11-16T19:38:56.218Z,4.57
2022-11-16T19:41:25.079Z,5.17
2022-11-16T19:43:59.518Z,5.50
2022-11-16T19:46:28.506Z,6.47
2022-11-16T19:48:58.245Z,6.50
2022-11-16T19:51:27.522Z,4.63
2022-11-16T19:53:57.685Z,6.33
2022-11-16T19:56:25.966Z,6.23
2022-11-16T19:58:53.878Z,5.07
2022-11-16T20:01:25.323Z,4.13
2022-11-16T20:03:53.588Z,4.17
2022-11-16T20:06:24.776Z,4.37
2022-11-16T20:08:55.803Z,7.83
2022-11-16T20:11:25.239Z,5.07
2022-11-16T20:13:54.608Z,5.37
2022-11-16T20:16:24.081Z,6.73
2022-11-16T20:18:53.022Z,5.67
2022-11-16T20:21:24.041Z,7.07
2022-11-16T20:23:52.807Z,7.70
2022-11-16T20:26:24.382Z,5.43
2022-11-16T20:28:53.196Z,5.33
2022-11-16T20:31:23.145Z,7.33
2022-11-16T20:33:52.430Z,5.83
2022-11-16T20:36:20.698Z,7.60
2022-11-16T20:38:50.118Z,5.37
2022-11-16T20:41:19.932Z,6.10
2022-11-16T20:43:50.750Z,4.20
2022-11-16T20:46:19.626Z,7.90
2022-11-16T20:48:49.734Z,5.73
2022-11-16T20:51:19.767Z,7.70
2022-11-16T20:53:50.319Z,7.10
2022-11-16T20:56:20.097Z,5.63
2022-11-16T20:58:48.686Z,7.73
2022-11-16T21:01:18.601Z,7.30
2022-11-16T21:03:49.546Z,6.17
2022-11-16T21:06:17.435Z,11.17
2022-11-16T21:08:45.320Z,28.87
2022-11-16T21:11:16.594Z,9.80
2022-11-16T21:14:03.977Z,10.53
2022-11-16T21:16:32.527Z,7.33
2022-11-16T21:19:00.391Z,6.53
2022-11-16T21:21:28.401Z,7.33
2022-11-16T21:23:56.321Z,5.83
2022-11-16T21:26:29.416Z,6.27
2022-11-16T21:29:00.537Z,5.83
2022-11-16T21:31:29.961Z,8.07
2022-11-16T21:34:00.452Z,5.83
2022-11-16T21:36:29.668Z,10.57
2022-11-16T21:38:59.905Z,8.27
2022-11-16T21:41:29.313Z,9.97
2022-11-16T21:43:57.517Z,8.57
2022-11-16T21:46:27.176Z,7.63
2022-11-16T21:48:56.947Z,8.43
2022-11-16T21:51:27.112Z,5.13
2022-11-16T21:53:55.697Z,6.80
2022-11-16T21:56:25.227Z,5.33
2022-11-16T21:58:56.887Z,5.73
2022-11-16T22:01:25.232Z,9.70
2022-11-16T22:04:07.062Z,4.93
2022-11-16T22:06:55.632Z,3.80
2022-11-16T22:09:23.552Z,6.67
2022-11-16T22:11:51.397Z,6.43
2022-11-16T22:14:20.718Z,3.37
2022-11-16T22:16:51.562Z,5.57
2022-11-16T22:19:20.588Z,4.10
2022-11-16T22:21:48.634Z,7.17
2022-11-16T22:24:16.532Z,5.00
2022-11-16T22:26:46.718Z,6.77
2022-11-16T22:29:14.580Z,6.37
2022-11-16T22:31:43.867Z,9.20
2022-11-16T22:34:11.692Z,11.20
2022-11-16T22:36:39.561Z,8.80
2022-11-16T22:39:07.372Z,6.83
2022-11-16T22:41:35.239Z,8.27
2022-11-16T22:44:03.171Z,5.80
2022-11-16T22:46:31.086Z,7.40
2022-11-16T22:49:05.431Z,6.33
2022-11-16T22:51:33.275Z,6.83
2022-11-16T22:54:02.717Z,7.13
2022-11-16T22:56:32.174Z,8.57
2022-11-16T22:59:02.245Z,7.07
2022-11-16T23:01:30.151Z,8.53
2022-11-16T23:04:00.156Z,9.00
2022-11-16T23:06:30.136Z,7.67
2022-11-16T23:08:58.035Z,6.70
2022-11-16T23:11:44.853Z,7.03
2022-11-16T23:14:34.100Z,4.30
2022-11-16T23:17:02.551Z,6.77
2022-11-16T23:19:49.222Z,6.17
2022-11-16T23:22:37.136Z,5.70
2022-11-16T23:25:24.023Z,7.47
2022-11-16T23:27:56.471Z,5.33
2022-11-16T23:30:24.551Z,6.00
2022-11-16T23:32:52.611Z,4.63
2022-11-16T23:35:22.169Z,6.30
2022-11-16T23:37:55.526Z,5.90
2022-11-16T23:40:25.821Z,6.47
2022-11-16T23:43:12.280Z,3.43
2022-11-16T23:45:40.752Z,6.10
2022-11-16T23:48:09.837Z,6.23
2022-11-16T23:50:39.796Z,5.43
2022-11-16T23:53:09.560Z,4.40
2022-11-16T23:55:39.300Z,8.77
2022-11-16T23:58:14.198Z,5.87
